Time;durP1;ratioP1;P1;durP2;ratioP2;P2;SDS_P1;SDS_P2;PMS_P1;PMS_P2;Temp;Humidity;BMP_temperature;BMP_pressure;BME280_temperature;BME280_humidity;BME280_pressure;Samples;Min_cycle;Max_cycle;Signal;HPM_P1;HPM_P2
2021/07/15 00:01:49;;;;;;;;;;;;;;;-144.99;100.00;52280.97;5041902;28;19932;-58
2021/07/15 00:04:17;;;;;;;;;;;;;;;-144.99;100.00;52285.03;5048929;28;19931;-58
2021/07/15 00:06:43;;;;;;;;;;;;;;;-144.99;100.00;52313.56;5047915;28;19929;-58
2021/07/15 00:09:10;;;;;;;;;;;;;;;-144.99;100.00;52293.19;5048991;28;20369;-58
2021/07/15 00:11:38;;;;;;;;;;;;;;;-144.99;100.00;52293.19;5049378;28;19925;-58
2021/07/15 00:14:05;;;;;;;;;;;;;;;-144.99;100.00;52329.88;5049190;28;19929;-59
2021/07/15 00:16:31;;;;;;;;;;;;;;;-144.99;100.00;52329.88;5048472;28;19929;-59
2021/07/15 00:18:57;;;;;;;;;;;;;;;-144.99;100.00;52350.25;5048447;28;19924;-59
2021/07/15 00:21:26;;;;;;;;;;;;;;;-144.99;100.00;52313.56;5049426;28;20204;-58
2021/07/15 00:23:53;;;;;;;;;;;;;;;-144.99;100.00;52301.34;5049381;28;20405;-58
2021/07/15 00:26:20;;;;;;;;;;;;;;;-144.99;100.00;52309.50;5049749;28;19924;-58
2021/07/15 00:28:47;;;;;;;;;;;;;;;-144.99;100.00;52338.03;5045563;28;19948;-59
2021/07/15 00:31:13;;;;;;;;;;;;;;;-144.99;100.00;52309.50;5049544;28;20282;-59
2021/07/15 00:33:40;;;;;;;;;;;;;;;-144.99;100.00;52350.25;5048919;28;19925;-59
2021/07/15 00:36:07;;;;;;;;;;;;;;;-144.99;100.00;52293.19;5049541;28;19925;-59
2021/07/15 00:38:35;;;;;;;;;;;;;;;-144.99;100.00;52305.41;5038051;28;19936;-59
2021/07/15 00:41:01;;;;;;;;;;;;;;;-144.99;100.00;52311.53;5048928;28;20345;-60
2021/07/15 00:43:28;;;;;;;;;;;;;;;-144.99;100.00;52317.66;5048822;28;19928;-59
2021/07/15 00:45:54;;;;;;;;;;;;;;;-144.99;100.00;52293.19;5049566;28;19947;-60
2021/07/15 00:48:21;;;;;;;;;;;;;;;-144.99;100.00;52309.50;5042791;28;19929;-59
2021/07/15 00:50:47;;;;;;;;;;;;;;;-144.99;100.00;52325.81;5049228;28;19925;-59
2021/07/15 00:53:14;;;;;;;;;;;;;;;-144.99;100.00;52315.59;5048929;28;20391;-59
2021/07/15 00:55:43;;;;;;;;;;;;;;;-144.99;100.00;52321.72;5048692;28;20344;-58
2021/07/15 00:58:11;;;;;;;;;;;;;;;-144.99;100.00;52325.81;5048251;28;19925;-58
2021/07/15 01:00:38;;;;;;;;;;;;;;;-144.99;100.00;52280.97;5044308;28;19932;-59
2021/07/15 01:03:04;;;;;;;;;;;;;;;-144.99;100.00;52315.59;5043715;28;19924;-58
2021/07/15 01:05:32;;;;;;;;;;;;;;;-144.99;100.00;52297.25;5048834;28;19960;-59
2021/07/15 01:07:59;;;;;;;;;;;;;;;-144.99;100.00;52321.72;5049166;28;19924;-59
2021/07/15 01:10:26;;;;;;;;;;;;;;;-144.99;100.00;52309.50;5038730;28;19933;-58
2021/07/15 01:13:07;;;;;;;;;;;;;;;-144.99;100.00;52329.88;5048569;28;19925;-59
2021/07/15 01:15:38;;;;;;;;;;;;;;;-144.99;100.00;52309.50;5047149;28;19933;-58
2021/07/15 01:18:10;;;;;;;;;;;;;;;-144.99;100.00;52299.31;5044201;28;19929;-59
2021/07/15 01:21:00;;;;;;;;;;;;;;;-144.99;100.00;52301.34;5048895;28;19929;-59
2021/07/15 01:23:43;;;;;;;;;;;;;;;-144.99;100.00;52309.50;5037157;28;19932;-59
2021/07/15 01:26:16;;;;;;;;;;;;;;;-144.99;100.00;52280.97;5047458;28;19932;-59
2021/07/15 01:29:01;;;;;;;;;;;;;;;-144.99;100.00;52317.66;5048543;28;19929;-59
2021/07/15 01:31:30;;;;;;;;;;;;;;;-144.99;100.00;52295.22;5048562;28;19925;-59
2021/07/15 01:33:57;;;;;;;;;;;;;;;-144.99;100.00;52287.06;5047960;28;19952;-59
2021/07/15 01:36:24;;;;;;;;;;;;;;;-144.99;100.00;52311.53;5042276;28;19929;-58
2021/07/15 01:38:53;;;;;;;;;;;;;;;-144.99;100.00;52309.50;5043846;28;19925;-58
2021/07/15 01:41:22;;;;;;;;;;;;;;;-144.99;100.00;52323.75;5050753;28;19928;-58
2021/07/15 01:43:52;;;;;;;;;;;;;;;-144.99;100.00;52303.38;5051661;28;19951;-59
2021/07/15 01:46:18;;;;;;;;;;;;;;;-144.99;100.00;52301.34;5048700;28;19932;-58
2021/07/15 01:48:46;;;;;;;;;;;;;;;-144.99;100.00;52309.50;5047620;28;19928;-59
2021/07/15 01:51:14;;;;;;;;;;;;;;;-144.99;100.00;52313.56;5051614;28;19924;-60
2021/07/15 01:53:40;;;;;;;;;;;;;;;-144.99;100.00;52291.16;5047772;28;20383;-60
2021/07/15 01:56:07;;;;;;;;;;;;;;;-144.99;100.00;52289.13;5047321;28;19925;-59
2021/07/15 01:58:35;;;;;;;;;;;;;;;-144.99;100.00;52309.50;5064961;22;19932;-61
2021/07/15 02:01:03;;;;;;;;;;;;;;;-144.99;100.00;52325.81;5064169;28;19924;-61
2021/07/15 02:03:29;;;;;;;;;;;;;;;-144.99;100.00;52309.50;5054785;28;19947;-62
2021/07/15 02:05:58;;;;;;;;;;;;;;;-144.99;100.00;52329.88;5060523;28;19932;-62
2021/07/15 02:08:25;;;;;;;;;;;;;;;-144.99;100.00;52264.66;5056161;28;19925;-62
2021/07/15 02:10:52;;;;;;;;;;;;;;;-144.99;100.00;52346.19;5051550;28;20386;-62
2021/07/15 02:13:19;;;;;;;;;;;;;;;-144.99;100.00;52325.81;5051552;28;20110;-62
2021/07/15 02:15:46;;;;;;;;;;;;;;;-144.99;100.00;52301.34;5056072;28;20335;-62
2021/07/15 02:18:14;;;;;;;;;;;;;;;-144.99;100.00;52309.50;5063455;28;19925;-61
2021/07/15 02:20:41;;;;;;;;;;;;;;;-144.99;100.00;52313.56;5051540;28;19959;-59
2021/07/15 02:23:09;;;;;;;;;;;;;;;-144.99;100.00;52321.72;5052097;28;19951;-59
2021/07/15 02:25:37;;;;;;;;;;;;;;;-144.99;100.00;52289.13;5062975;28;19932;-60
2021/07/15 02:28:03;;;;;;;;;;;;;;;-144.99;100.00;52342.09;5060244;28;19954;-59
2021/07/15 02:30:30;;;;;;;;;;;;;;;-144.99;100.00;52338.03;5067306;28;20400;-59
2021/07/15 02:32:58;;;;;;;;;;;;;;;-144.99;100.00;52348.22;5064329;28;19928;-59
2021/07/15 02:35:27;;;;;;;;;;;;;;;-144.99;100.00;52321.72;5051780;28;20095;-59
2021/07/15 02:37:57;;;;;;;;;;;;;;;-144.99;100.00;52315.59;5063658;28;20363;-59
2021/07/15 02:40:24;;;;;;;;;;;;;;;-144.99;100.00;52268.72;5072685;28;20306;-61
2021/07/15 02:42:51;;;;;;;;;;;;;;;-144.99;100.00;52305.41;5051059;28;20284;-63
2021/07/15 02:45:18;;;;;;;;;;;;;;;-144.99;100.00;52329.88;5051161;28;19932;-60
2021/07/15 02:47:45;;;;;;;;;;;;;;;-144.99;100.00;52297.25;5055263;28;19925;-61
2021/07/15 02:50:12;;;;;;;;;;;;;;;-144.99;100.00;52293.19;5070982;28;19925;-61
2021/07/15 02:52:39;;;;;;;;;;;;;;;-144.99;100.00;52305.41;5064769;28;19925;-61
2021/07/15 02:55:06;;;;;;;;;;;;;;;-144.99;100.00;52297.25;5054551;28;20351;-61
2021/07/15 02:57:35;;;;;;;;;;;;;;;-144.99;100.00;52333.94;5050864;28;19925;-61
2021/07/15 03:00:05;;;;;;;;;;;;;;;-144.99;100.00;52285.03;5069481;28;19925;-64
2021/07/15 03:02:33;;;;;;;;;;;;;;;-144.99;100.00;52311.53;5064647;28;19928;-63
2021/07/15 03:05:02;;;;;;;;;;;;;;;-144.99;100.00;52333.94;5055342;28;20294;-63
2021/07/15 03:07:29;;;;;;;;;;;;;;;-144.99;100.00;52317.66;5066547;28;19924;-60
2021/07/15 03:09:56;;;;;;;;;;;;;;;-144.99;100.00;52325.81;5051671;28;19943;-60
2021/07/15 03:12:23;;;;;;;;;;;;;;;-144.99;100.00;52293.19;5061311;28;19985;-59
2021/07/15 03:14:52;;;;;;;;;;;;;;;-144.99;100.00;52293.19;5057058;28;19924;-59
2021/07/15 03:17:24;;;;;;;;;;;;;;;-144.99;100.00;52319.69;5059350;28;19928;-61
2021/07/15 03:19:50;;;;;;;;;;;;;;;-144.99;100.00;52289.13;5069571;28;20370;-62
2021/07/15 03:22:17;;;;;;;;;;;;;;;-144.99;100.00;52305.41;5057800;28;19924;-60
2021/07/15 03:24:46;;;;;;;;;;;;;;;-144.99;100.00;52333.94;5054575;28;19948;-61
2021/07/15 03:27:13;;;;;;;;;;;;;;;-144.99;100.00;52329.88;5056981;28;20390;-61
2021/07/15 03:29:43;;;;;;;;;;;;;;;-144.99;100.00;52336.00;5075365;28;19925;-60
2021/07/15 03:32:13;;;;;;;;;;;;;;;-144.99;100.00;52309.50;5050435;28;20071;-60
2021/07/15 03:34:39;;;;;;;;;;;;;;;-144.99;100.00;52342.09;5050178;28;20302;-60
2021/07/15 03:37:06;;;;;;;;;;;;;;;-144.99;100.00;52346.19;5050333;28;19972;-60
2021/07/15 03:39:33;;;;;;;;;;;;;;;-144.99;100.00;52303.38;5063262;28;19924;-60
2021/07/15 03:41:59;;;;;;;;;;;;;;;-144.99;100.00;52342.09;5050385;28;20341;-60
2021/07/15 03:44:26;;;;;;;;;;;;;;;-144.99;100.00;52329.88;5049512;28;20137;-60
2021/07/15 03:46:56;;;;;;;;;;;;;;;-144.99;100.00;52319.69;5050558;28;19932;-63
2021/07/15 03:49:25;;;;;;;;;;;;;;;-144.99;100.00;52309.50;5058539;28;19932;-63
2021/07/15 03:51:52;;;;;;;;;;;;;;;-144.99;100.00;52293.19;5053616;28;19932;-63
2021/07/15 03:54:19;;;;;;;;;;;;;;;-144.99;100.00;52325.81;5066946;28;20293;-63
2021/07/15 03:56:47;;;;;;;;;;;;;;;-144.99;100.00;52329.88;5052705;28;20392;-63
2021/07/15 03:59:14;;;;;;;;;;;;;;;-144.99;100.00;52344.16;5065037;28;20227;-62
2021/07/15 04:01:41;;;;;;;;;;;;;;;-144.99;100.00;52356.38;5067794;28;19924;-63
2021/07/15 04:04:09;;;;;;;;;;;;;;;-144.99;100.00;52313.56;5061492;28;20275;-63
2021/07/15 04:06:37;;;;;;;;;;;;;;;-144.99;100.00;52307.47;5050637;28;19971;-64
2021/07/15 04:09:06;;;;;;;;;;;;;;;-144.99;100.00;52317.66;5053478;28;20113;-64
2021/07/15 04:11:34;;;;;;;;;;;;;;;-144.99;100.00;52354.34;5061445;28;19948;-64
2021/07/15 04:14:02;;;;;;;;;;;;;;;-144.99;100.00;52352.28;5060521;28;19925;-62
2021/07/15 04:16:43;;;;;;;;;;;;;;;-144.99;100.00;52321.72;5055038;28;19932;-59
2021/07/15 04:19:10;;;;;;;;;;;;;;;-144.99;100.00;52325.81;5055558;28;19925;-61
2021/07/15 04:21:39;;;;;;;;;;;;;;;-144.99;100.00;52289.13;5050097;28;19925;-64
2021/07/15 04:24:06;;;;;;;;;;;;;;;-144.99;100.00;52301.34;5055459;28;20387;-64
2021/07/15 04:26:33;;;;;;;;;;;;;;;-144.99;100.00;52313.56;5060996;28;20263;-62
2021/07/15 04:29:00;;;;;;;;;;;;;;;-144.99;100.00;52309.50;5053215;28;19991;-61
2021/07/15 04:31:41;;;;;;;;;;;;;;;-144.99;100.00;52317.66;5062777;28;19924;-63
2021/07/15 04:34:09;;;;;;;;;;;;;;;-144.99;100.00;52291.16;5067791;28;19925;-63
2021/07/15 04:36:35;;;;;;;;;;;;;;;-144.99;100.00;52301.34;5067491;28;20294;-63
2021/07/15 04:39:03;;;;;;;;;;;;;;;-144.99;100.00;52321.72;5053578;28;19925;-63
2021/07/15 04:41:30;;;;;;;;;;;;;;;-144.99;100.00;52331.91;5049696;28;20394;-61
2021/07/15 04:43:58;;;;;;;;;;;;;;;-144.99;100.00;52338.03;5056681;28;19924;-63
2021/07/15 04:46:26;;;;;;;;;;;;;;;-144.99;100.00;52333.94;5050090;28;19929;-63
2021/07/15 04:48:52;;;;;;;;;;;;;;;-144.99;100.00;52338.03;5048842;28;19932;-63
2021/07/15 04:51:19;;;;;;;;;;;;;;;-144.99;100.00;52309.50;5052299;28;19932;-63
2021/07/15 04:53:46;;;;;;;;;;;;;;;-144.99;100.00;52305.41;5058193;28;20340;-62
2021/07/15 04:56:14;;;;;;;;;;;;;;;-144.99;100.00;52301.34;5059919;28;19982;-62
2021/07/15 04:58:41;;;;;;;;;;;;;;;-144.99;100.00;52342.09;5052122;28;19931;-63
2021/07/15 05:01:08;;;;;;;;;;;;;;;-144.99;100.00;52321.72;5066134;28;20452;-65
2021/07/15 05:03:35;;;;;;;;;;;;;;;-144.99;100.00;52317.66;5051175;28;19936;-65
2021/07/15 05:06:03;;;;;;;;;;;;;;;-144.99;100.00;52321.72;5064445;28;19940;-64
2021/07/15 05:08:29;;;;;;;;;;;;;;;-144.99;100.00;52321.72;5049457;28;19935;-65
2021/07/15 05:10:56;;;;;;;;;;;;;;;-144.99;100.00;52301.34;5051081;28;19925;-64
2021/07/15 05:13:24;;;;;;;;;;;;;;;-144.99;100.00;52309.50;5065543;28;19925;-63
2021/07/15 05:15:52;;;;;;;;;;;;;;;-144.99;100.00;52346.19;4018606;28;10001078;-64
2021/07/15 05:18:18;;;;;;;;;;;;;;;-144.99;100.00;52305.41;5067019;28;20209;-64
2021/07/15 05:20:45;;;;;;;;;;;;;;;-144.99;100.00;52285.03;5069503;28;19932;-64
2021/07/15 05:23:12;;;;;;;;;;;;;;;-144.99;100.00;52309.50;5049852;28;19929;-64
2021/07/15 05:25:38;;;;;;;;;;;;;;;-144.99;100.00;52333.94;5061355;28;19936;-64
2021/07/15 05:28:05;;;;;;;;;;;;;;;-144.99;99.92;52338.03;5049958;28;19932;-64
2021/07/15 05:30:32;;;;;;;;;;;;;;;-144.99;99.44;52313.56;5055059;28;20296;-64
2021/07/15 05:32:59;;;;;;;;;;;;;;;-144.99;99.79;52305.41;5049494;28;19935;-64
2021/07/15 05:35:25;;;;;;;;;;;;;;;-144.99;100.00;52309.50;5058817;28;20015;-64
2021/07/15 05:37:52;;;;;;;;;;;;;;;-144.99;100.00;52305.41;5049517;28;19928;-64
2021/07/15 05:40:18;;;;;;;;;;;;;;;-144.99;99.52;52293.19;5049647;28;19936;-64
2021/07/15 05:42:45;;;;;;;;;;;;;;;-144.99;99.38;52297.25;5069427;28;20066;-64
2021/07/15 05:45:11;;;;;;;;;;;;;;;-144.99;99.05;52280.97;5050537;28;19929;-64
2021/07/15 05:47:39;;;;;;;;;;;;;;;-144.99;98.59;52293.19;5061174;28;20481;-64
2021/07/15 05:50:06;;;;;;;;;;;;;;;-144.99;97.48;52295.22;5048561;28;20316;-63
2021/07/15 05:52:32;;;;;;;;;;;;;;;-144.99;96.49;52276.88;5064238;28;20380;-64
2021/07/15 05:54:58;;;;;;;;;;;;;;;-144.99;96.96;52309.50;5064675;28;20052;-64
2021/07/15 05:57:25;;;;;;;;;;;;;;;-144.99;96.71;52317.66;5048823;28;19936;-64
2021/07/15 05:59:51;;;;;;;;;;;;;;;-144.99;96.79;52309.50;5061726;28;19934;-65
2021/07/15 06:02:18;;;;;;;;;;;;;;;-144.99;95.62;52285.03;5066000;28;19928;-64
2021/07/15 06:04:46;;;;;;;;;;;;;;;-144.99;95.47;52303.38;5055432;28;19951;-64
2021/07/15 06:07:12;;;;;;;;;;;;;;;-144.99;94.66;52291.16;5055026;28;19933;-64
2021/07/15 06:09:38;;;;;;;;;;;;;;;-144.99;94.69;52268.72;5048787;28;19935;-64
2021/07/15 06:12:05;;;;;;;;;;;;;;;-144.99;94.43;52301.34;5052824;28;19924;-64
2021/07/15 06:14:31;;;;;;;;;;;;;;;-144.99;93.98;52301.34;5063691;28;20372;-64
2021/07/15 06:16:58;;;;;;;;;;;;;;;-144.99;93.40;52240.19;5068604;28;20308;-64
2021/07/15 06:19:24;;;;;;;;;;;;;;;-144.99;92.61;52295.22;5052696;28;19928;-64
2021/07/15 06:21:52;;;;;;;;;;;;;;;-144.99;90.74;52258.53;5048350;28;19944;-65
2021/07/15 06:24:18;;;;;;;;;;;;;;;-144.99;91.04;52285.03;5065604;28;19928;-65
2021/07/15 06:26:47;;;;;;;;;;;;;;;-144.99;90.81;52270.78;5065953;28;19928;-65
2021/07/15 06:29:14;;;;;;;;;;;;;;;-144.99;91.13;52256.50;5056979;28;20333;-64
2021/07/15 06:31:40;;;;;;;;;;;;;;;-144.99;91.41;52305.41;5061810;28;19947;-63
2021/07/15 06:34:06;;;;;;;;;;;;;;;-144.99;91.44;52297.25;5070416;28;20379;-64
2021/07/15 06:36:33;;;;;;;;;;;;;;;-144.99;91.44;52293.19;5058195;28;19936;-63
2021/07/15 06:39:01;;;;;;;;;;;;;;;-144.99;90.98;52285.03;5047644;28;20283;-63
2021/07/15 06:41:28;;;;;;;;;;;;;;;-144.99;89.79;52256.50;5048496;28;19929;-63
2021/07/15 06:43:54;;;;;;;;;;;;;;;-144.99;89.89;52268.72;5053887;28;19941;-65
2021/07/15 06:46:24;;;;;;;;;;;;;;;-144.99;89.35;52248.34;5062932;28;20027;-62
2021/07/15 06:48:51;;;;;;;;;;;;;;;-144.99;89.86;52266.69;5050327;28;19940;-65
2021/07/15 06:51:18;;;;;;;;;;;;;;;-144.99;90.02;52260.56;5050077;28;19925;-64
2021/07/15 06:53:44;;;;;;;;;;;;;;;-144.99;89.16;52264.66;5057446;28;19931;-63
2021/07/15 06:56:12;;;;;;;;;;;;;;;-144.99;88.72;52248.34;5062396;28;19933;-64
2021/07/15 06:58:38;;;;;;;;;;;;;;;-144.99;88.12;52301.34;5050842;28;19924;-64
2021/07/15 07:01:04;;;;;;;;;;;;;;;-144.99;87.40;52252.44;5064944;28;19925;-63
2021/07/15 07:03:31;;;;;;;;;;;;;;;-144.99;87.54;52285.03;5050648;28;19940;-63
2021/07/15 07:05:57;;;;;;;;;;;;;;;-144.99;86.25;52276.88;5070982;28;20431;-63
2021/07/15 07:08:23;;;;;;;;;;;;;;;-144.99;86.19;52272.81;5052682;28;19936;-64
2021/07/15 07:10:50;;;;;;;;;;;;;;;-144.99;85.56;52262.63;5047844;28;19928;-64
2021/07/15 07:13:17;;;;;;;;;;;;;;;-144.99;85.49;52252.44;5047533;28;20307;-64
2021/07/15 07:15:44;;;;;;;;;;;;;;;-144.99;85.07;52268.72;5062989;28;19951;-64
2021/07/15 07:18:10;;;;;;;;;;;;;;;-144.99;84.35;52285.03;5063009;28;19929;-64
2021/07/15 07:20:36;;;;;;;;;;;;;;;-144.99;82.81;52289.13;5066979;28;19939;-64
2021/07/15 07:23:03;;;;;;;;;;;;;;;-144.99;82.76;52250.38;5048973;28;19936;-64
2021/07/15 07:25:29;;;;;;;;;;;;;;;-144.99;81.80;52248.34;5057727;28;20504;-63
2021/07/15 07:27:56;;;;;;;;;;;;;;;-144.99;81.82;52236.13;5057450;28;20229;-64
2021/07/15 07:30:24;;;;;;;;;;;;;;;-144.99;81.21;52280.97;5047107;28;20333;-62
2021/07/15 07:32:51;;;;;;;;;;;;;;;-144.99;80.16;52211.66;5046897;28;19971;-64
2021/07/15 07:35:18;;;;;;;;;;;;;;;-144.99;80.04;52209.63;5053277;28;19932;-65
2021/07/15 07:37:45;;;;;;;;;;;;;;;-144.99;80.04;52240.19;5046075;28;19932;-64
2021/07/15 07:40:12;;;;;;;;;;;;;;;-144.99;79.72;52195.34;5046585;28;20029;-64
2021/07/15 07:42:39;;;;;;;;;;;;;;;-144.99;78.98;52199.44;5046695;28;20075;-64
2021/07/15 07:45:06;;;;;;;;;;;;;;;-144.99;77.33;52232.03;5062483;28;19936;-64
2021/07/15 07:47:34;;;;;;;;;;;;;;;-144.99;75.95;52252.44;5046470;28;20386;-63
2021/07/15 07:50:00;;;;;;;;;;;;;;;-144.99;76.36;52232.03;5046962;28;19925;-65
2021/07/15 07:52:27;;;;;;;;;;;;;;;-144.99;75.79;52268.72;5058192;28;19928;-64
2021/07/15 07:54:53;;;;;;;;;;;;;;;-144.99;75.47;52211.66;5067275;28;19931;-65
2021/07/15 07:57:20;;;;;;;;;;;;;;;-144.99;75.15;52207.59;5064944;28;20006;-64
2021/07/15 07:59:46;;;;;;;;;;;;;;;-144.99;75.53;52207.59;5063391;28;19928;-64
2021/07/15 08:02:13;;;;;;;;;;;;;;;-144.99;75.52;52232.03;5057952;28;19932;-65
2021/07/15 08:04:41;;;;;;;;;;;;;;;-144.99;74.50;52223.88;5046760;28;20146;-65
2021/07/15 08:07:09;;;;;;;;;;;;;;;-144.99;75.17;52225.94;5057912;28;19928;-65
2021/07/15 08:09:42;;;;;;;;;;;;;;;-144.99;75.76;52254.47;5046447;28;20425;-64
2021/07/15 08:12:09;;;;;;;;;;;;;;;-144.99;76.43;52260.56;5046698;28;19940;-64
2021/07/15 08:14:36;;;;;;;;;;;;;;;-144.99;76.68;52260.56;5052622;28;20152;-64
2021/07/15 08:17:02;;;;;;;;;;;;;;;-144.99;78.27;52227.97;5069679;28;20059;-64
2021/07/15 08:19:29;;;;;;;;;;;;;;;-144.99;78.63;52264.66;5063378;28;19928;-65
2021/07/15 08:21:56;;;;;;;;;;;;;;;-144.99;78.82;52246.31;5046448;28;19929;-64
2021/07/15 08:24:23;;;;;;;;;;;;;;;-144.99;79.05;52221.84;5047560;28;19929;-65
2021/07/15 08:26:50;;;;;;;;;;;;;;;-144.99;77.88;52219.81;5061124;28;20253;-65
2021/07/15 08:29:17;;;;;;;;;;;;;;;-144.99;77.65;52258.53;5060810;28;19974;-65
2021/07/15 08:31:45;;;;;;;;;;;;;;;-144.99;76.15;52252.44;5061144;28;19925;-64
2021/07/15 08:34:12;;;;;;;;;;;;;;;-144.99;76.27;52293.19;5050273;28;19929;-66
2021/07/15 08:36:38;;;;;;;;;;;;;;;-144.99;76.90;52211.66;5048373;28;19928;-65
2021/07/15 08:39:09;;;;;;;;;;;;;;;-144.99;77.06;52248.34;5062089;28;19966;-65
2021/07/15 08:41:35;;;;;;;;;;;;;;;-144.99;76.68;52225.94;5058166;28;19981;-65
2021/07/15 08:44:02;;;;;;;;;;;;;;;-144.99;77.23;52276.88;5048849;28;19928;-65
2021/07/15 08:46:29;;;;;;;;;;;;;;;-144.99;77.22;52297.25;5060011;28;19935;-65
2021/07/15 08:48:55;;;;;;;;;;;;;;;-144.99;77.11;52242.22;5048168;28;19924;-66
2021/07/15 08:51:22;;;;;;;;;;;;;;;-144.99;75.88;52244.28;5061946;28;19943;-65
2021/07/15 08:53:49;;;;;;;;;;;;;;;-144.99;75.66;52260.56;5052639;28;19925;-64
2021/07/15 08:59:02;;;;;;;;;;;;;;;-144.99;75.07;52174.97;5057319;28;19939;-67
2021/07/15 09:01:33;;;;;;;;;;;;;;;-144.99;72.40;52223.88;5069604;28;19935;-66
2021/07/15 09:04:00;;;;;;;;;;;;;;;-144.99;70.67;52205.53;5050571;28;19925;-65
2021/07/15 09:06:27;;;;;;;;;;;;;;;-144.99;69.88;52207.59;5050753;28;19925;-67
2021/07/15 09:08:54;;;;;;;;;;;;;;;-144.99;69.11;52199.44;5073988;28;19935;-65
2021/07/15 09:11:22;;;;;;;;;;;;;;;-144.99;69.36;52174.97;5050347;28;19925;-66
2021/07/15 09:13:49;;;;;;;;;;;;;;;-144.99;68.89;52219.81;5050728;28;19936;-66
2021/07/15 09:16:15;;;;;;;;;;;;;;;-144.99;69.84;52221.84;5054270;28;19924;-64
2021/07/15 09:18:55;;;;;;;;;;;;;;;-144.99;68.68;52213.69;5065921;28;19928;-65
2021/07/15 09:21:22;;;;;;;;;;;;;;;-144.99;68.67;52195.34;5058786;28;19931;-64
2021/07/15 09:23:48;;;;;;;;;;;;;;;-144.99;68.45;52179.06;5052486;28;19925;-66
2021/07/15 09:26:14;;;;;;;;;;;;;;;-144.99;68.01;52170.91;5064379;28;19924;-64
2021/07/15 09:28:42;;;;;;;;;;;;;;;-144.99;66.77;52158.66;5072444;28;20393;-65
2021/07/15 09:31:15;;;;;;;;;;;;;;;-144.99;63.87;52189.25;5055651;28;19925;-65
2021/07/15 09:33:42;;;;;;;;;;;;;;;-144.99;64.52;52183.13;5052018;28;19932;-67
2021/07/15 09:36:13;;;;;;;;;;;;;;;-144.99;62.94;52203.50;5052640;28;19970;-66
2021/07/15 09:38:40;;;;;;;;;;;;;;;-144.99;63.17;52199.44;5067581;28;20254;-66
2021/07/15 09:41:06;;;;;;;;;;;;;;;-144.99;64.16;52146.44;5052563;28;19924;-66
2021/07/15 09:43:34;;;;;;;;;;;;;;;-144.99;64.55;52185.16;5051732;28;20417;-66
2021/07/15 09:46:14;;;;;;;;;;;;;;;-144.99;63.96;52195.34;5052230;28;19947;-66
2021/07/15 09:48:41;;;;;;;;;;;;;;;-144.99;63.39;52191.28;5057728;28;20410;-66
2021/07/15 09:51:09;;;;;;;;;;;;;;;-144.99;62.90;52195.34;5051959;28;19979;-67
2021/07/15 09:53:36;;;;;;;;;;;;;;;-144.99;63.63;52240.19;5065482;28;19928;-65
2021/07/15 09:56:03;;;;;;;;;;;;;;;-144.99;63.76;52195.34;5060568;28;19926;-65
2021/07/15 09:58:33;;;;;;;;;;;;;;;-144.99;64.39;52174.97;5054386;28;19941;-66
2021/07/15 10:01:05;;;;;;;;;;;;;;;-144.99;65.46;52197.41;5073126;28;20035;-66
2021/07/15 10:03:36;;;;;;;;;;;;;;;-144.99;66.48;52203.50;5054141;28;19928;-68
2021/07/15 10:06:03;;;;;;;;;;;;;;;-144.99;65.82;52150.53;5052067;28;19925;-66
2021/07/15 10:08:30;;;;;;;;;;;;;;;-144.99;65.04;52185.16;5051776;28;19925;-66
2021/07/15 10:10:57;;;;;;;;;;;;;;;-144.99;64.83;52166.81;5059738;28;19954;-66
2021/07/15 10:13:24;;;;;;;;;;;;;;;-144.99;64.48;52150.53;5050890;28;20363;-65
2021/07/15 10:15:51;;;;;;;;;;;;;;;-144.99;64.55;52121.97;5070837;28;19924;-67
2021/07/15 10:18:33;;;;;;;;;;;;;;;-144.99;62.87;52101.59;5063663;28;20409;-66
2021/07/15 10:21:01;;;;;;;;;;;;;;;-144.99;61.63;52130.13;5064187;28;20011;-66
2021/07/15 10:23:30;;;;;;;;;;;;;;;-144.99;61.23;52124.03;5063391;28;19924;-66
2021/07/15 10:25:57;;;;;;;;;;;;;;;-144.99;59.39;52069.00;5066883;28;20343;-66
2021/07/15 10:28:23;;;;;;;;;;;;;;;-144.99;59.10;52097.53;5064711;28;20313;-67
2021/07/15 10:30:50;;;;;;;;;;;;;;;-144.99;58.47;52081.22;5063082;28;20461;-67
2021/07/15 10:33:17;;;;;;;;;;;;;;;-144.99;58.66;52069.00;5070495;28;19939;-66
2021/07/15 10:35:44;;;;;;;;;;;;;;;-144.99;57.14;52095.50;5071401;28;19928;-66
2021/07/15 10:38:12;;;;;;;;;;;;;;;-144.99;57.18;52126.06;5070352;28;19935;-67
2021/07/15 10:40:38;;;;;;;;;;;;;;;-144.99;57.60;52156.63;5069247;28;19926;-67
2021/07/15 10:43:05;;;;;;;;;;;;;;;-144.99;57.77;52146.44;5068568;28;19928;-67
2021/07/15 10:45:32;;;;;;;;;;;;;;;-144.99;58.70;52156.63;5072812;28;19928;-67
2021/07/15 10:47:58;;;;;;;;;;;;;;;-144.99;58.52;52142.38;5071627;28;19929;-67
2021/07/15 10:50:25;;;;;;;;;;;;;;;-144.99;59.17;52126.06;5066244;28;19936;-67
2021/07/15 10:52:51;;;;;;;;;;;;;;;-144.99;58.83;52150.53;4372545;28;10000870;-67
2021/07/15 10:55:20;;;;;;;;;;;;;;;-144.99;58.88;52126.06;5064472;28;20386;-66
2021/07/15 10:57:49;;;;;;;;;;;;;;;-144.99;58.76;52089.38;5067105;28;19951;-66
2021/07/15 11:00:20;;;;;;;;;;;;;;;-144.99;58.03;52158.66;5058021;28;19936;-67
2021/07/15 11:02:47;;;;;;;;;;;;;;;-144.99;57.78;52124.03;5066399;28;19931;-63
2021/07/15 11:05:24;;;;;;;;;;;;;;;-144.99;57.89;52048.63;5065601;28;19933;-63
2021/07/15 11:07:50;;;;;;;;;;;;;;;-144.99;57.63;52048.63;5067135;28;19939;-63
2021/07/15 11:10:19;;;;;;;;;;;;;;;-144.99;55.84;52036.38;5065540;28;20411;-63
2021/07/15 11:12:55;;;;;;;;;;;;;;;-144.99;53.76;52048.63;5065316;28;19934;-63
2021/07/15 11:15:22;;;;;;;;;;;;;;;-144.99;52.64;52060.84;5063007;28;19928;-63
2021/07/15 11:17:50;;;;;;;;;;;;;;;-144.99;51.84;52046.56;5057187;28;19951;-63
2021/07/15 11:20:24;;;;;;;;;;;;;;;-144.99;52.02;52044.53;5061788;28;20017;-64
2021/07/15 11:22:52;;;;;;;;;;;;;;;-144.99;52.35;52079.19;5062160;28;19929;-64
2021/07/15 11:25:31;;;;;;;;;;;;;;;-144.99;52.75;52077.16;5062844;28;19935;-63
2021/07/15 11:27:59;;;;;;;;;;;;;;;-144.99;52.89;52105.69;5060118;28;19993;-62
2021/07/15 11:30:40;;;;;;;;;;;;;;;-144.99;53.61;52105.69;5071563;28;19931;-62
2021/07/15 11:33:26;;;;;;;;;;;;;;;-144.99;55.01;52156.63;5059977;28;20130;-62
2021/07/15 11:35:53;;;;;;;;;;;;;;;-144.99;56.31;52101.59;5063279;28;19928;-62
2021/07/15 11:38:23;;;;;;;;;;;;;;;-144.99;56.16;52093.44;5068122;28;19928;-62
2021/07/15 11:40:51;;;;;;;;;;;;;;;-144.99;55.19;52052.69;5064917;28;19929;-62
2021/07/15 11:43:30;;;;;;;;;;;;;;;-144.99;54.68;52097.53;5065891;28;19928;-62
2021/07/15 11:46:04;;;;;;;;;;;;;;;-144.99;53.92;52052.69;5060421;28;19964;-62
2021/07/15 11:49:00;;;;;;;;;;;;;;;-144.99;53.74;52107.72;5065651;28;19975;-64
2021/07/15 11:51:31;;;;;;;;;;;;;;;-144.99;53.56;52105.69;5032540;28;19929;-63
2021/07/15 11:54:14;;;;;;;;;;;;;;;-144.99;53.92;52093.44;5065378;28;20446;-63
2021/07/15 11:56:42;;;;;;;;;;;;;;;-144.99;53.80;52073.06;5063823;28;19924;-63
2021/07/15 11:59:08;;;;;;;;;;;;;;;-144.99;54.11;52069.00;5063051;28;20011;-63
2021/07/15 12:01:35;;;;;;;;;;;;;;;-144.99;54.22;52085.31;5068994;28;19928;-63
2021/07/15 12:04:03;;;;;;;;;;;;;;;-144.99;54.88;52130.13;5074081;28;20343;-63
2021/07/15 12:06:30;;;;;;;;;;;;;;;-144.99;55.81;52138.28;5062207;28;20302;-63
2021/07/15 12:09:01;;;;;;;;;;;;;;;-144.99;56.67;52126.06;5073598;28;20825;-63
2021/07/15 12:11:28;;;;;;;;;;;;;;;-144.99;57.99;52077.16;5064558;28;19933;-62
2021/07/15 12:13:55;;;;;;;;;;;;;;;-144.99;57.45;52040.47;5066525;28;19948;-62
2021/07/15 12:16:22;;;;;;;;;;;;;;;-144.99;55.98;52044.53;5070225;28;19929;-62
2021/07/15 12:18:50;;;;;;;;;;;;;;;-144.99;54.66;52064.91;5059766;28;19924;-62
2021/07/15 12:21:17;;;;;;;;;;;;;;;-144.99;54.58;52081.22;5063915;28;19928;-62
2021/07/15 12:23:44;;;;;;;;;;;;;;;-144.99;53.85;52036.38;5062474;28;20481;-62
2021/07/15 12:26:12;;;;;;;;;;;;;;;-144.99;53.83;52024.16;5061492;28;19933;-63
2021/07/15 12:28:44;;;;;;;;;;;;;;;-144.99;52.03;52056.78;5049031;28;20325;-63
2021/07/15 12:31:12;;;;;;;;;;;;;;;-144.99;51.90;52046.56;5066329;28;19928;-62